sensor_id;sensor_type;location;lat;lon;timestamp;pressure;altitude;pressure_sealevel;temperature;humidity
84663;BME280;74891;59.208;18.220;2024-02-21T00:02:28;100819.84;;;-0.46;89.60
84663;BME280;74891;59.208;18.220;2024-02-21T00:05:01;100813.03;;;-0.47;89.76
84663;BME280;74891;59.208;18.220;2024-02-21T00:07:44;100823.75;;;-0.41;89.60
84663;BME280;74891;59.208;18.220;2024-02-21T00:10:35;100818.56;;;-0.41;89.47
84663;BME280;74891;59.208;18.220;2024-02-21T00:13:21;100809.97;;;-0.50;89.58
84663;BME280;74891;59.208;18.220;2024-02-21T00:16:07;100797.34;;;-0.53;89.26
84663;BME280;74891;59.208;18.220;2024-02-21T00:18:40;100801.41;;;-0.51;89.75
84663;BME280;74891;59.208;18.220;2024-02-21T00:21:18;100803.97;;;-0.51;89.53
84663;BME280;74891;59.208;18.220;2024-02-21T00:24:00;100802.03;;;-0.57;90.17
84663;BME280;74891;59.208;18.220;2024-02-21T00:26:38;100783.22;;;-0.67;89.79
84663;BME280;74891;59.208;18.220;2024-02-21T00:29:35;100786.47;;;-0.65;90.14
84663;BME280;74891;59.208;18.220;2024-02-21T00:32:39;100775.28;;;-0.65;90.53
84663;BME280;74891;59.208;18.220;2024-02-21T00:35:28;100769.97;;;-0.64;90.36
84663;BME280;74891;59.208;18.220;2024-02-21T00:37:59;100782.50;;;-0.51;90.42
84663;BME280;74891;59.208;18.220;2024-02-21T00:40:24;100779.72;;;-0.50;90.06
84663;BME280;74891;59.208;18.220;2024-02-21T00:42:50;100780.53;;;-0.49;89.89
84663;BME280;74891;59.208;18.220;2024-02-21T00:45:18;100737.47;;;-0.67;89.96
84663;BME280;74891;59.208;18.220;2024-02-21T00:47:49;100762.44;;;-0.49;90.26
84663;BME280;74891;59.208;18.220;2024-02-21T00:50:36;100757.13;;;-0.48;90.22
84663;BME280;74891;59.208;18.220;2024-02-21T00:53:11;100744.16;;;-0.56;89.96
84663;BME280;74891;59.208;18.220;2024-02-21T00:55:42;100750.34;;;-0.49;89.31
84663;BME280;74891;59.208;18.220;2024-02-21T00:58:19;100760.06;;;-0.42;89.76
84663;BME280;74891;59.208;18.220;2024-02-21T01:01:01;100758.28;;;-0.42;90.77
84663;BME280;74891;59.208;18.220;2024-02-21T01:03:39;100751.63;;;-0.45;89.94
84663;BME280;74891;59.208;18.220;2024-02-21T01:06:16;100744.66;;;-0.44;90.45
84663;BME280;74891;59.208;18.220;2024-02-21T01:08:41;100738.56;;;-0.43;90.36
84663;BME280;74891;59.208;18.220;2024-02-21T01:11:15;100736.44;;;-0.39;90.59
84663;BME280;74891;59.208;18.220;2024-02-21T01:14:04;100733.69;;;-0.46;90.98
84663;BME280;74891;59.208;18.220;2024-02-21T01:16:50;100718.66;;;-0.42;90.57
84663;BME280;74891;59.208;18.220;2024-02-21T01:19:30;100714.16;;;-0.40;90.55
84663;BME280;74891;59.208;18.220;2024-02-21T01:22:02;100718.03;;;-0.36;91.08
84663;BME280;74891;59.208;18.220;2024-02-21T01:24:31;100705.88;;;-0.44;90.45
84663;BME280;74891;59.208;18.220;2024-02-21T01:27:20;100661.38;;;-0.64;91.46
84663;BME280;74891;59.208;18.220;2024-02-21T01:30:01;100689.22;;;-0.41;91.63
84663;BME280;74891;59.208;18.220;2024-02-21T01:32:27;100662.88;;;-0.53;91.32
84663;BME280;74891;59.208;18.220;2024-02-21T01:35:05;100684.56;;;-0.38;91.65
84663;BME280;74891;59.208;18.220;2024-02-21T01:37:41;100681.81;;;-0.36;91.43
84663;BME280;74891;59.208;18.220;2024-02-21T01:40:21;100666.28;;;-0.36;91.33
84663;BME280;74891;59.208;18.220;2024-02-21T01:42:55;100624.72;;;-0.59;92.09
84663;BME280;74891;59.208;18.220;2024-02-21T01:45:25;100657.88;;;-0.38;91.53
84663;BME280;74891;59.208;18.220;2024-02-21T01:47:54;100647.53;;;-0.38;91.92
84663;BME280;74891;59.208;18.220;2024-02-21T01:50:22;100649.16;;;-0.37;92.06
84663;BME280;74891;59.208;18.220;2024-02-21T01:53:02;100648.84;;;-0.34;92.42
84663;BME280;74891;59.208;18.220;2024-02-21T01:56:10;100651.25;;;-0.33;92.33
84663;BME280;74891;59.208;18.220;2024-02-21T01:58:37;100644.16;;;-0.31;92.19
84663;BME280;74891;59.208;18.220;2024-02-21T02:01:17;100642.69;;;-0.33;91.76
84663;BME280;74891;59.208;18.220;2024-02-21T02:03:50;100638.16;;;-0.31;92.30
84663;BME280;74891;59.208;18.220;2024-02-21T02:06:24;100636.38;;;-0.31;92.47
84663;BME280;74891;59.208;18.220;2024-02-21T02:09:17;100632.19;;;-0.32;92.44
84663;BME280;74891;59.208;18.220;2024-02-21T02:11:47;100628.47;;;-0.29;92.65
84663;BME280;74891;59.208;18.220;2024-02-21T02:14:39;100618.13;;;-0.29;92.50
84663;BME280;74891;59.208;18.220;2024-02-21T02:20:05;100604.06;;;-0.27;93.01
84663;BME280;74891;59.208;18.220;2024-02-21T02:22:41;100600.03;;;-0.29;92.83
84663;BME280;74891;59.208;18.220;2024-02-21T02:25:15;100591.47;;;-0.30;93.70
84663;BME280;74891;59.208;18.220;2024-02-21T02:27:53;100585.44;;;-0.30;93.20
84663;BME280;74891;59.208;18.220;2024-02-21T02:30:22;100571.25;;;-0.26;93.19
84663;BME280;74891;59.208;18.220;2024-02-21T02:32:59;100580.59;;;-0.25;93.49
84663;BME280;74891;59.208;18.220;2024-02-21T02:35:25;100578.03;;;-0.25;93.12
84663;BME280;74891;59.208;18.220;2024-02-21T02:38:04;100586.44;;;-0.23;93.45
84663;BME280;74891;59.208;18.220;2024-02-21T02:40:43;100536.13;;;-0.53;92.89
84663;BME280;74891;59.208;18.220;2024-02-21T02:43:14;100594.69;;;-0.19;93.25
84663;BME280;74891;59.208;18.220;2024-02-21T02:45:45;100585.16;;;-0.19;92.99
84663;BME280;74891;59.208;18.220;2024-02-21T02:48:13;100577.53;;;-0.20;92.97
84663;BME280;74891;59.208;18.220;2024-02-21T02:51:11;100568.66;;;-0.26;93.13
84663;BME280;74891;59.208;18.220;2024-02-21T02:53:42;100569.63;;;-0.19;93.01
84663;BME280;74891;59.208;18.220;2024-02-21T02:56:28;100562.03;;;-0.20;93.96
84663;BME280;74891;59.208;18.220;2024-02-21T02:59:02;100567.03;;;-0.19;93.07
84663;BME280;74891;59.208;18.220;2024-02-21T03:01:36;100560.88;;;-0.18;93.36
84663;BME280;74891;59.208;18.220;2024-02-21T03:04:04;100535.34;;;-0.29;92.90
84663;BME280;74891;59.208;18.220;2024-02-21T03:06:40;100553.78;;;-0.16;93.13
84663;BME280;74891;59.208;18.220;2024-02-21T03:09:49;100547.47;;;-0.21;93.40
84663;BME280;74891;59.208;18.220;2024-02-21T03:12:38;100518.19;;;-0.38;93.52
84663;BME280;74891;59.208;18.220;2024-02-21T03:15:09;100552.66;;;-0.13;94.03
84663;BME280;74891;59.208;18.220;2024-02-21T03:17:46;100550.69;;;-0.11;93.15
84663;BME280;74891;59.208;18.220;2024-02-21T03:20:23;100555.72;;;-0.10;93.33
84663;BME280;74891;59.208;18.220;2024-02-21T03:22:57;100545.50;;;-0.11;93.76
84663;BME280;74891;59.208;18.220;2024-02-21T03:25:24;100554.72;;;-0.09;93.66
84663;BME280;74891;59.208;18.220;2024-02-21T03:27:59;100538.41;;;-0.09;93.19
84663;BME280;74891;59.208;18.220;2024-02-21T03:30:27;100527.25;;;-0.10;93.14
84663;BME280;74891;59.208;18.220;2024-02-21T03:32:55;100520.94;;;-0.07;93.68
84663;BME280;74891;59.208;18.220;2024-02-21T03:35:20;100527.38;;;-0.03;93.91
84663;BME280;74891;59.208;18.220;2024-02-21T03:38:10;100521.06;;;-0.01;93.79
84663;BME280;74891;59.208;18.220;2024-02-21T03:40:56;100516.72;;;0.00;93.92
84663;BME280;74891;59.208;18.220;2024-02-21T03:43:27;100504.41;;;-0.06;93.61
84663;BME280;74891;59.208;18.220;2024-02-21T03:46:24;100506.50;;;0.07;93.09
84663;BME280;74891;59.208;18.220;2024-02-21T03:48:53;100511.69;;;0.07;93.27
84663;BME280;74891;59.208;18.220;2024-02-21T03:51:28;100498.44;;;0.02;93.17
84663;BME280;74891;59.208;18.220;2024-02-21T03:53:53;100483.06;;;-0.08;93.94
84663;BME280;74891;59.208;18.220;2024-02-21T03:56:28;100469.50;;;-0.10;92.92
84663;BME280;74891;59.208;18.220;2024-02-21T03:59:02;100456.59;;;-0.18;93.22
84663;BME280;74891;59.208;18.220;2024-02-21T04:01:33;100494.56;;;0.06;93.75
84663;BME280;74891;59.208;18.220;2024-02-21T04:04:12;100489.38;;;0.06;93.38
84663;BME280;74891;59.208;18.220;2024-02-21T04:07:01;100497.44;;;0.11;93.78
84663;BME280;74891;59.208;18.220;2024-02-21T04:09:31;100485.47;;;0.10;93.42
84663;BME280;74891;59.208;18.220;2024-02-21T04:12:03;100479.31;;;0.11;93.31
84663;BME280;74891;59.208;18.220;2024-02-21T04:14:40;100451.72;;;-0.05;93.41
84663;BME280;74891;59.208;18.220;2024-02-21T04:17:19;100484.78;;;0.16;93.36
84663;BME280;74891;59.208;18.220;2024-02-21T04:19:44;100483.66;;;0.18;93.28
84663;BME280;74891;59.208;18.220;2024-02-21T04:22:25;100472.50;;;0.18;93.23
84663;BME280;74891;59.208;18.220;2024-02-21T04:24:56;100449.56;;;0.07;93.35
84663;BME280;74891;59.208;18.220;2024-02-21T04:27:24;100464.56;;;0.19;93.26
84663;BME280;74891;59.208;18.220;2024-02-21T04:30:27;100463.44;;;0.22;93.51
84663;BME280;74891;59.208;18.220;2024-02-21T04:33:15;100456.28;;;0.24;94.21
84663;BME280;74891;59.208;18.220;2024-02-21T04:38:52;100446.56;;;0.26;93.46
84663;BME280;74891;59.208;18.220;2024-02-21T04:41:32;100443.84;;;0.28;93.38
84663;BME280;74891;59.208;18.220;2024-02-21T04:44:07;100433.28;;;0.29;94.00
84663;BME280;74891;59.208;18.220;2024-02-21T04:47:01;100431.03;;;0.26;93.96
84663;BME280;74891;59.208;18.220;2024-02-21T04:49:37;100425.72;;;0.28;94.53
84663;BME280;74891;59.208;18.220;2024-02-21T04:52:21;100426.31;;;0.30;94.07
84663;BME280;74891;59.208;18.220;2024-02-21T04:54:49;100430.66;;;0.37;94.01
84663;BME280;74891;59.208;18.220;2024-02-21T04:57:49;100424.34;;;0.40;94.01
84663;BME280;74891;59.208;18.220;2024-02-21T05:03:21;100408.81;;;0.40;94.54
84663;BME280;74891;59.208;18.220;2024-02-21T05:05:56;100410.09;;;0.44;94.85
84663;BME280;74891;59.208;18.220;2024-02-21T05:08:32;100407.31;;;0.46;94.47
84663;BME280;74891;59.208;18.220;2024-02-21T05:10:57;100401.19;;;0.47;94.54
84663;BME280;74891;59.208;18.220;2024-02-21T05:13:26;100320.34;;;-0.03;93.81
84663;BME280;74891;59.208;18.220;2024-02-21T05:18:49;100389.78;;;0.56;94.25
84663;BME280;74891;59.208;18.220;2024-02-21T05:21:18;100396.25;;;0.60;94.28
84663;BME280;74891;59.208;18.220;2024-02-21T05:24:12;100397.66;;;0.62;94.87
84663;BME280;74891;59.208;18.220;2024-02-21T05:26:43;100392.03;;;0.59;94.21
84663;BME280;74891;59.208;18.220;2024-02-21T05:29:19;100378.44;;;0.57;94.98
84663;BME280;74891;59.208;18.220;2024-02-21T05:32:01;100387.13;;;0.64;94.92
84663;BME280;74891;59.208;18.220;2024-02-21T05:34:39;100376.94;;;0.62;94.16
84663;BME280;74891;59.208;18.220;2024-02-21T05:37:12;100368.50;;;0.69;94.41
84663;BME280;74891;59.208;18.220;2024-02-21T05:39:58;100366.53;;;0.71;94.16
84663;BME280;74891;59.208;18.220;2024-02-21T05:42:23;100371.53;;;0.72;94.24
84663;BME280;74891;59.208;18.220;2024-02-21T05:45:18;100359.22;;;0.74;94.80
84663;BME280;74891;59.208;18.220;2024-02-21T05:48:18;100346.06;;;0.76;94.86
84663;BME280;74891;59.208;18.220;2024-02-21T05:50:51;100345.28;;;0.75;95.16
84663;BME280;74891;59.208;18.220;2024-02-21T05:53:24;100340.09;;;0.75;94.28
84663;BME280;74891;59.208;18.220;2024-02-21T05:56:22;100341.97;;;0.81;94.71
84663;BME280;74891;59.208;18.220;2024-02-21T05:58:50;100342.16;;;0.80;95.00
84663;BME280;74891;59.208;18.220;2024-02-21T06:01:29;100344.25;;;0.84;95.11
84663;BME280;74891;59.208;18.220;2024-02-21T06:04:27;100338.25;;;0.84;94.58
84663;BME280;74891;59.208;18.220;2024-02-21T06:06:54;100331.91;;;0.86;94.72
84663;BME280;74891;59.208;18.220;2024-02-21T06:09:49;100327.34;;;0.88;94.20
84663;BME280;74891;59.208;18.220;2024-02-21T06:12:28;100310.63;;;0.76;94.95
84663;BME280;74891;59.208;18.220;2024-02-21T06:14:56;100321.81;;;0.92;94.61
84663;BME280;74891;59.208;18.220;2024-02-21T06:17:21;100321.19;;;0.89;94.82
84663;BME280;74891;59.208;18.220;2024-02-21T06:19:48;100334.78;;;0.92;94.88
84663;BME280;74891;59.208;18.220;2024-02-21T06:22:17;100324.25;;;0.93;94.78
84663;BME280;74891;59.208;18.220;2024-02-21T06:24:48;100301.16;;;0.83;95.39
84663;BME280;74891;59.208;18.220;2024-02-21T06:30:31;100323.69;;;0.98;94.88
84663;BME280;74891;59.208;18.220;2024-02-21T06:33:06;100286.41;;;0.84;94.30
84663;BME280;74891;59.208;18.220;2024-02-21T06:35:38;100311.38;;;1.00;94.78
84663;BME280;74891;59.208;18.220;2024-02-21T06:38:08;100323.03;;;1.04;94.37
84663;BME280;74891;59.208;18.220;2024-02-21T06:40:52;100320.88;;;1.07;94.90
84663;BME280;74891;59.208;18.220;2024-02-21T06:43:25;100310.94;;;0.96;94.36
84663;BME280;74891;59.208;18.220;2024-02-21T06:45:56;100325.91;;;1.09;94.31
84663;BME280;74891;59.208;18.220;2024-02-21T06:48:22;100313.09;;;1.07;94.17
84663;BME280;74891;59.208;18.220;2024-02-21T06:51:01;100299.97;;;1.09;94.55
84663;BME280;74891;59.208;18.220;2024-02-21T06:53:29;100297.09;;;1.04;94.35
84663;BME280;74891;59.208;18.220;2024-02-21T06:56:05;100302.19;;;1.12;94.37
84663;BME280;74891;59.208;18.220;2024-02-21T06:58:41;100299.63;;;1.12;94.62
84663;BME280;74891;59.208;18.220;2024-02-21T07:01:13;100302.84;;;1.14;94.44
84663;BME280;74891;59.208;18.220;2024-02-21T07:04:04;100243.84;;;0.78;94.81
84663;BME280;74891;59.208;18.220;2024-02-21T07:06:46;100298.25;;;1.16;94.16
84663;BME280;74891;59.208;18.220;2024-02-21T07:09:15;100287.88;;;1.16;94.35
84663;BME280;74891;59.208;18.220;2024-02-21T07:14:40;100265.97;;;1.19;94.45
84663;BME280;74891;59.208;18.220;2024-02-21T07:17:14;100240.06;;;1.04;94.56
84663;BME280;74891;59.208;18.220;2024-02-21T07:19:50;100258.84;;;1.21;95.43
84663;BME280;74891;59.208;18.220;2024-02-21T07:22:30;100257.03;;;1.21;94.37
84663;BME280;74891;59.208;18.220;2024-02-21T07:25:00;100256.69;;;1.24;95.26
84663;BME280;74891;59.208;18.220;2024-02-21T07:27:29;100262.66;;;1.25;94.86
84663;BME280;74891;59.208;18.220;2024-02-21T07:30:18;100251.06;;;1.21;94.79
84663;BME280;74891;59.208;18.220;2024-02-21T07:33:01;100265.09;;;1.26;94.23
84663;BME280;74891;59.208;18.220;2024-02-21T07:35:33;100255.16;;;1.30;93.95
84663;BME280;74891;59.208;18.220;2024-02-21T07:38:04;100260.34;;;1.30;94.17
84663;BME280;74891;59.208;18.220;2024-02-21T07:40:39;100259.19;;;1.32;94.23
84663;BME280;74891;59.208;18.220;2024-02-21T07:43:33;100246.59;;;1.29;95.26
84663;BME280;74891;59.208;18.220;2024-02-21T07:46:07;100250.06;;;1.37;93.98
84663;BME280;74891;59.208;18.220;2024-02-21T07:48:32;100253.84;;;1.34;94.16
84663;BME280;74891;59.208;18.220;2024-02-21T07:51:10;100199.75;;;1.01;94.58
84663;BME280;74891;59.208;18.220;2024-02-21T07:53:36;100257.22;;;1.35;94.19
84663;BME280;74891;59.208;18.220;2024-02-21T07:56:07;100244.09;;;1.36;94.46
84663;BME280;74891;59.208;18.220;2024-02-21T07:58:49;100247.28;;;1.38;94.06
84663;BME280;74891;59.208;18.220;2024-02-21T08:01:36;100221.09;;;1.18;94.55
84663;BME280;74891;59.208;18.220;2024-02-21T08:07:27;100238.34;;;1.41;94.18
84663;BME280;74891;59.208;18.220;2024-02-21T08:09:54;100217.78;;;1.24;94.39
84663;BME280;74891;59.208;18.220;2024-02-21T08:12:24;100225.66;;;1.31;94.29
84663;BME280;74891;59.208;18.220;2024-02-21T08:17:58;100247.03;;;1.48;94.88
84663;BME280;74891;59.208;18.220;2024-02-21T08:20:29;100226.28;;;1.33;94.02
84663;BME280;74891;59.208;18.220;2024-02-21T08:26:34;100252.22;;;1.48;94.32
84663;BME280;74891;59.208;18.220;2024-02-21T08:29:01;100247.03;;;1.48;94.21
84663;BME280;74891;59.208;18.220;2024-02-21T08:31:33;100246.22;;;1.47;94.35
84663;BME280;74891;59.208;18.220;2024-02-21T08:34:18;100244.59;;;1.46;94.52
84663;BME280;74891;59.208;18.220;2024-02-21T08:36:53;100244.25;;;1.49;94.34
84663;BME280;74891;59.208;18.220;2024-02-21T08:39:30;100238.25;;;1.49;94.52
84663;BME280;74891;59.208;18.220;2024-02-21T08:42:08;100233.06;;;1.49;94.12
84663;BME280;74891;59.208;18.220;2024-02-21T08:44:42;100237.28;;;1.50;93.84
84663;BME280;74891;59.208;18.220;2024-02-21T08:47:09;100242.38;;;1.58;94.46
84663;BME280;74891;59.208;18.220;2024-02-21T08:49:46;100223.31;;;1.51;94.64
84663;BME280;74891;59.208;18.220;2024-02-21T08:52:45;100227.16;;;1.55;94.63
84663;BME280;74891;59.208;18.220;2024-02-21T09:01:51;100220.50;;;1.67;94.02
84663;BME280;74891;59.208;18.220;2024-02-21T09:04:19;100200.84;;;1.58;94.34
84663;BME280;74891;59.208;18.220;2024-02-21T09:06:56;100209.75;;;1.70;93.86
84663;BME280;74891;59.208;18.220;2024-02-21T09:09:21;100207.78;;;1.72;93.44
84663;BME280;74891;59.208;18.220;2024-02-21T09:12:13;100203.75;;;1.70;94.25
84663;BME280;74891;59.208;18.220;2024-02-21T09:15:13;100198.66;;;1.76;93.67
84663;BME280;74891;59.208;18.220;2024-02-21T09:18:04;100204.03;;;1.75;93.66
84663;BME280;74891;59.208;18.220;2024-02-21T09:20:35;100197.84;;;1.76;93.81
84663;BME280;74891;59.208;18.220;2024-02-21T09:23:09;100203.84;;;1.76;93.93
84663;BME280;74891;59.208;18.220;2024-02-21T09:25:56;100190.63;;;1.71;93.26
84663;BME280;74891;59.208;18.220;2024-02-21T09:28:24;100184.25;;;1.74;94.20
84663;BME280;74891;59.208;18.220;2024-02-21T09:30:58;100176.63;;;1.72;93.78
84663;BME280;74891;59.208;18.220;2024-02-21T09:33:41;100176.63;;;1.72;93.75
84663;BME280;74891;59.208;18.220;2024-02-21T09:36:27;100172.34;;;1.80;93.18
84663;BME280;74891;59.208;18.220;2024-02-21T09:39:19;100173.94;;;1.81;94.24
84663;BME280;74891;59.208;18.220;2024-02-21T09:41:55;100168.75;;;1.81;93.93
84663;BME280;74891;59.208;18.220;2024-02-21T09:44:28;100157.13;;;1.76;93.64
84663;BME280;74891;59.208;18.220;2024-02-21T09:47:06;100145.13;;;1.75;93.71
84663;BME280;74891;59.208;18.220;2024-02-21T09:49:44;100160.47;;;1.92;94.06
84663;BME280;74891;59.208;18.220;2024-02-21T09:52:19;100167.88;;;1.95;94.39
84663;BME280;74891;59.208;18.220;2024-02-21T09:55:08;100161.31;;;1.99;93.61
84663;BME280;74891;59.208;18.220;2024-02-21T09:57:36;100167.31;;;1.99;94.17
84663;BME280;74891;59.208;18.220;2024-02-21T10:00:06;100165.34;;;2.02;94.06
84663;BME280;74891;59.208;18.220;2024-02-21T10:02:58;100137.72;;;1.94;93.94
84663;BME280;74891;59.208;18.220;2024-02-21T10:05:31;100162.63;;;2.10;93.77
84663;BME280;74891;59.208;18.220;2024-02-21T10:07:57;100157.22;;;2.11;93.51
84663;BME280;74891;59.208;18.220;2024-02-21T10:10:22;100127.75;;;1.97;93.71
84663;BME280;74891;59.208;18.220;2024-02-21T10:16:27;100147.09;;;2.16;93.75
84663;BME280;74891;59.208;18.220;2024-02-21T10:18:54;100148.72;;;2.17;93.33
84663;BME280;74891;59.208;18.220;2024-02-21T10:24:40;100142.75;;;2.24;94.07
84663;BME280;74891;59.208;18.220;2024-02-21T10:27:32;100141.75;;;2.25;93.89
84663;BME280;74891;59.208;18.220;2024-02-21T10:29:57;100133.97;;;2.25;94.02
84663;BME280;74891;59.208;18.220;2024-02-21T10:33:01;100139.59;;;2.28;93.59
84663;BME280;74891;59.208;18.220;2024-02-21T10:36:23;100132.59;;;2.29;93.46
84663;BME280;74891;59.208;18.220;2024-02-21T10:39:19;100126.78;;;2.27;93.72
84663;BME280;74891;59.208;18.220;2024-02-21T10:41:51;100076.19;;;1.94;93.68
84663;BME280;74891;59.208;18.220;2024-02-21T10:44:33;100136.19;;;2.28;93.92
84663;BME280;74891;59.208;18.220;2024-02-21T10:47:42;100126.63;;;2.28;93.66
84663;BME280;74891;59.208;18.220;2024-02-21T10:50:42;100122.22;;;2.29;93.62
84663;BME280;74891;59.208;18.220;2024-02-21T10:53:33;100124.81;;;2.29;93.62
84663;BME280;74891;59.208;18.220;2024-02-21T10:59:09;100115.63;;;2.33;93.35
84663;BME280;74891;59.208;18.220;2024-02-21T11:01:40;100113.66;;;2.35;93.47
84663;BME280;74891;59.208;18.220;2024-02-21T11:04:32;100089.81;;;2.25;93.48
84663;BME280;74891;59.208;18.220;2024-02-21T11:07:22;100110.13;;;2.42;93.28
84663;BME280;74891;59.208;18.220;2024-02-21T11:10:05;100095.75;;;2.47;93.24
84663;BME280;74891;59.208;18.220;2024-02-21T11:12:42;100100.34;;;2.44;93.36
84663;BME280;74891;59.208;18.220;2024-02-21T11:15:53;100102.94;;;2.44;93.25
84663;BME280;74891;59.208;18.220;2024-02-21T11:18:45;100101.75;;;2.47;93.25
84663;BME280;74891;59.208;18.220;2024-02-21T11:21:32;100094.31;;;2.44;92.89
84663;BME280;74891;59.208;18.220;2024-02-21T11:24:12;100102.50;;;2.41;93.44
84663;BME280;74891;59.208;18.220;2024-02-21T11:26:43;100090.09;;;2.36;93.47
84663;BME280;74891;59.208;18.220;2024-02-21T11:29:11;100098.09;;;2.41;93.23
84663;BME280;74891;59.208;18.220;2024-02-21T11:32:26;100086.91;;;2.41;93.08
84663;BME280;74891;59.208;18.220;2024-02-21T11:37:55;100083.56;;;2.47;93.39
84663;BME280;74891;59.208;18.220;2024-02-21T11:40:26;100086.75;;;2.49;93.58
84663;BME280;74891;59.208;18.220;2024-02-21T11:42:51;100090.97;;;2.50;93.33
84663;BME280;74891;59.208;18.220;2024-02-21T11:46:05;100074.78;;;2.48;93.29
84663;BME280;74891;59.208;18.220;2024-02-21T11:48:11;100076.97;;;2.51;93.19
84663;BME280;74891;59.208;18.220;2024-02-21T11:51:00;100070.59;;;2.54;93.24
84663;BME280;74891;59.208;18.220;2024-02-21T11:53:51;100062.41;;;2.57;93.15
84663;BME280;74891;59.208;18.220;2024-02-21T11:56:20;100059.03;;;2.56;92.86
84663;BME280;74891;59.208;18.220;2024-02-21T11:58:54;100060.63;;;2.57;93.40
84663;BME280;74891;59.208;18.220;2024-02-21T12:02:06;100057.63;;;2.60;92.81
84663;BME280;74891;59.208;18.220;2024-02-21T12:04:41;100060.63;;;2.57;93.02
84663;BME280;74891;59.208;18.220;2024-02-21T12:10:21;100047.84;;;2.56;92.98
84663;BME280;74891;59.208;18.220;2024-02-21T12:12:49;100059.09;;;2.70;92.77
84663;BME280;74891;59.208;18.220;2024-02-21T12:15:35;100063.06;;;2.65;92.89
84663;BME280;74891;59.208;18.220;2024-02-21T12:18:03;100056.09;;;2.66;93.18
84663;BME280;74891;59.208;18.220;2024-02-21T12:20:35;100056.66;;;2.68;92.96
84663;BME280;74891;59.208;18.220;2024-02-21T12:23:31;100052.50;;;2.74;92.93
84663;BME280;74891;59.208;18.220;2024-02-21T12:29:28;100012.31;;;2.70;92.78
84663;BME280;74891;59.208;18.220;2024-02-21T12:31:56;100042.59;;;2.97;92.55
84663;BME280;74891;59.208;18.220;2024-02-21T12:34:27;100033.22;;;3.03;92.73
84663;BME280;74891;59.208;18.220;2024-02-21T12:36:55;100046.06;;;3.18;92.71
84663;BME280;74891;59.208;18.220;2024-02-21T12:39:26;100036.03;;;3.15;92.59
84663;BME280;74891;59.208;18.220;2024-02-21T12:42:07;100037.44;;;3.17;92.13
84663;BME280;74891;59.208;18.220;2024-02-21T12:44:47;100045.47;;;3.29;92.23
84663;BME280;74891;59.208;18.220;2024-02-21T12:47:18;100047.47;;;3.27;92.06
84663;BME280;74891;59.208;18.220;2024-02-21T12:49:57;100041.66;;;3.25;91.72
84663;BME280;74891;59.208;18.220;2024-02-21T12:52:32;100040.06;;;3.24;91.73
84663;BME280;74891;59.208;18.220;2024-02-21T12:54:57;100040.06;;;3.24;91.98
84663;BME280;74891;59.208;18.220;2024-02-21T12:57:40;100041.25;;;3.28;91.85
84663;BME280;74891;59.208;18.220;2024-02-21T13:04:02;100031.69;;;3.35;91.86
84663;BME280;74891;59.208;18.220;2024-02-21T13:07:08;100023.88;;;3.28;91.23
84663;BME280;74891;59.208;18.220;2024-02-21T13:09:37;100032.25;;;3.24;91.53
84663;BME280;74891;59.208;18.220;2024-02-21T13:12:05;100029.44;;;3.25;91.83
84663;BME280;74891;59.208;18.220;2024-02-21T13:14:36;100040.06;;;3.24;91.39
84663;BME280;74891;59.208;18.220;2024-02-21T13:17:21;100030.81;;;3.15;91.62
84663;BME280;74891;59.208;18.220;2024-02-21T13:19:55;100038.84;;;3.13;91.73
84663;BME280;74891;59.208;18.220;2024-02-21T13:22:24;100038.03;;;3.13;91.66
84663;BME280;74891;59.208;18.220;2024-02-21T13:24:58;100038.25;;;3.18;91.48
84663;BME280;74891;59.208;18.220;2024-02-21T13:27:44;100034.84;;;3.17;91.96
84663;BME280;74891;59.208;18.220;2024-02-21T13:30:19;100034.03;;;3.17;91.70
84663;BME280;74891;59.208;18.220;2024-02-21T13:32:44;100032.84;;;3.13;91.77
84663;BME280;74891;59.208;18.220;2024-02-21T13:38:28;100030.81;;;3.15;91.83
84663;BME280;74891;59.208;18.220;2024-02-21T13:40:53;100027.44;;;3.07;92.42
84663;BME280;74891;59.208;18.220;2024-02-21T13:43:24;100033.63;;;3.13;92.23
84663;BME280;74891;59.208;18.220;2024-02-21T13:46:01;100000.38;;;2.88;92.19
84663;BME280;74891;59.208;18.220;2024-02-21T13:49:02;100026.19;;;3.03;91.83
84663;BME280;74891;59.208;18.220;2024-02-21T13:51:51;100019.59;;;3.01;92.03
84663;BME280;74891;59.208;18.220;2024-02-21T13:57:59;100030.03;;;3.07;91.94
84663;BME280;74891;59.208;18.220;2024-02-21T14:01:05;100030.03;;;3.07;91.82
84663;BME280;74891;59.208;18.220;2024-02-21T14:03:46;100007.56;;;2.86;92.31
84663;BME280;74891;59.208;18.220;2024-02-21T14:06:23;100025.63;;;3.01;92.17
84663;BME280;74891;59.208;18.220;2024-02-21T14:08:51;100035.41;;;3.06;92.11
84663;BME280;74891;59.208;18.220;2024-02-21T14:11:33;99975.09;;;2.62;91.92
84663;BME280;74891;59.208;18.220;2024-02-21T14:14:01;100024.22;;;3.05;92.25
84663;BME280;74891;59.208;18.220;2024-02-21T14:16:29;100029.41;;;3.05;92.18
84663;BME280;74891;59.208;18.220;2024-02-21T14:18:54;100036.03;;;3.08;92.33
84663;BME280;74891;59.208;18.220;2024-02-21T14:21:49;100029.59;;;3.04;92.12
84663;BME280;74891;59.208;18.220;2024-02-21T14:24:27;100026.41;;;3.02;92.04
84663;BME280;74891;59.208;18.220;2024-02-21T14:26:53;100030.00;;;3.01;92.19
84663;BME280;74891;59.208;18.220;2024-02-21T14:29:30;100024.78;;;3.01;92.30
84663;BME280;74891;59.208;18.220;2024-02-21T14:31:55;100023.81;;;3.02;92.15
84663;BME280;74891;59.208;18.220;2024-02-21T14:35:01;100031.19;;;2.98;92.15
84663;BME280;74891;59.208;18.220;2024-02-21T14:37:34;100032.81;;;2.99;92.01
84663;BME280;74891;59.208;18.220;2024-02-21T14:40:01;100035.00;;;3.02;92.27
84663;BME280;74891;59.208;18.220;2024-02-21T14:42:43;100026.81;;;2.99;92.13
84663;BME280;74891;59.208;18.220;2024-02-21T14:45:09;100024.00;;;3.00;92.29
84663;BME280;74891;59.208;18.220;2024-02-21T14:47:54;100030.19;;;2.99;92.25